sensor_id;sensor_type;location;lat;lon;timestamp;pressure;altitude;pressure_sealevel;temperature;humidity
83195;BME280;73090;49.282;11.402;2024-02-16T00:02:40;96428.03;;;4.08;99.21
83195;BME280;73090;49.282;11.402;2024-02-16T00:06:42;96433.53;;;4.05;98.91
83195;BME280;73090;49.282;11.402;2024-02-16T00:10:45;96432.50;;;3.98;99.14
83195;BME280;73090;49.282;11.402;2024-02-16T00:14:46;96427.59;;;3.95;99.20
83195;BME280;73090;49.282;11.402;2024-02-16T00:18:48;96435.25;;;3.96;99.43
83195;BME280;73090;49.282;11.402;2024-02-16T00:22:50;96426.75;;;3.94;99.52
83195;BME280;73090;49.282;11.402;2024-02-16T00:26:52;96424.31;;;3.93;99.60
83195;BME280;73090;49.282;11.402;2024-02-16T00:30:54;96422.03;;;3.90;99.69
83195;BME280;73090;49.282;11.402;2024-02-16T00:34:55;96419.56;;;3.88;99.73
83195;BME280;73090;49.282;11.402;2024-02-16T00:38:57;96413.91;;;3.93;99.85
83195;BME280;73090;49.282;11.402;2024-02-16T00:42:59;96419.78;;;3.95;99.73
83195;BME280;73090;49.282;11.402;2024-02-16T00:47:00;96409.38;;;3.95;99.64
83195;BME280;73090;49.282;11.402;2024-02-16T00:51:03;96404.63;;;3.90;99.88
83195;BME280;73090;49.282;11.402;2024-02-16T00:55:05;96399.44;;;3.90;99.95
83195;BME280;73090;49.282;11.402;2024-02-16T00:59:07;96399.44;;;3.90;100.00
83195;BME280;73090;49.282;11.402;2024-02-16T01:03:10;96386.34;;;4.00;100.00
83195;BME280;73090;49.282;11.402;2024-02-16T01:07:14;96388.06;;;4.09;100.00
83195;BME280;73090;49.282;11.402;2024-02-16T01:11:16;96395.72;;;4.11;100.00
83195;BME280;73090;49.282;11.402;2024-02-16T01:15:18;96398.69;;;4.16;100.00
83195;BME280;73090;49.282;11.402;2024-02-16T01:19:19;96394.34;;;4.25;100.00
83195;BME280;73090;49.282;11.402;2024-02-16T01:23:21;96394.75;;;4.30;100.00
83195;BME280;73090;49.282;11.402;2024-02-16T01:27:23;96390.19;;;4.32;100.00
83195;BME280;73090;49.282;11.402;2024-02-16T01:31:24;96409.97;;;4.43;100.00
83195;BME280;73090;49.282;11.402;2024-02-16T01:35:26;96398.59;;;4.44;100.00
83195;BME280;73090;49.282;11.402;2024-02-16T01:39:27;96392.56;;;4.43;100.00
83195;BME280;73090;49.282;11.402;2024-02-16T01:43:29;96387.22;;;4.45;100.00
83195;BME280;73090;49.282;11.402;2024-02-16T01:47:31;96387.72;;;4.48;100.00
83195;BME280;73090;49.282;11.402;2024-02-16T01:51:32;96398.50;;;4.53;100.00
83195;BME280;73090;49.282;11.402;2024-02-16T01:55:35;96393.00;;;4.57;100.00
83195;BME280;73090;49.282;11.402;2024-02-16T01:59:37;96395.47;;;4.58;100.00
83195;BME280;73090;49.282;11.402;2024-02-16T02:03:41;96398.41;;;4.63;100.00
83195;BME280;73090;49.282;11.402;2024-02-16T02:07:43;96399.06;;;4.65;100.00
83195;BME280;73090;49.282;11.402;2024-02-16T02:11:44;96394.97;;;4.63;100.00
83195;BME280;73090;49.282;11.402;2024-02-16T02:15:46;96390.75;;;4.62;100.00
83195;BME280;73090;49.282;11.402;2024-02-16T02:19:48;96387.16;;;4.63;100.00
83195;BME280;73090;49.282;11.402;2024-02-16T02:23:50;96387.47;;;4.60;100.00
83195;BME280;73090;49.282;11.402;2024-02-16T02:27:52;96390.63;;;4.63;100.00
83195;BME280;73090;49.282;11.402;2024-02-16T02:31:54;96380.19;;;4.63;100.00
83195;BME280;73090;49.282;11.402;2024-02-16T02:35:56;96385.91;;;4.67;100.00
83195;BME280;73090;49.282;11.402;2024-02-16T02:39:57;96379.94;;;4.75;100.00
83195;BME280;73090;49.282;11.402;2024-02-16T02:43:59;96372.28;;;4.73;100.00
83195;BME280;73090;49.282;11.402;2024-02-16T02:48:01;96365.59;;;4.70;100.00
83195;BME280;73090;49.282;11.402;2024-02-16T02:52:03;96368.72;;;4.74;100.00
83195;BME280;73090;49.282;11.402;2024-02-16T02:56:05;96361.41;;;4.78;100.00
83195;BME280;73090;49.282;11.402;2024-02-16T03:00:08;96369.22;;;4.78;100.00
83195;BME280;73090;49.282;11.402;2024-02-16T03:04:12;96367.13;;;4.81;100.00
83195;BME280;73090;49.282;11.402;2024-02-16T03:08:14;96368.91;;;4.81;100.00
83195;BME280;73090;49.282;11.402;2024-02-16T03:12:16;96371.13;;;4.76;100.00
83195;BME280;73090;49.282;11.402;2024-02-16T03:16:17;96373.44;;;4.79;100.00
83195;BME280;73090;49.282;11.402;2024-02-16T03:20:19;96367.78;;;4.83;100.00
83195;BME280;73090;49.282;11.402;2024-02-16T03:24:21;96371.38;;;4.82;100.00
83195;BME280;73090;49.282;11.402;2024-02-16T03:28:23;96380.13;;;4.81;100.00
83195;BME280;73090;49.282;11.402;2024-02-16T03:32:24;96382.59;;;4.83;100.00
83195;BME280;73090;49.282;11.402;2024-02-16T03:36:26;96389.13;;;4.87;100.00
83195;BME280;73090;49.282;11.402;2024-02-16T03:40:28;96396.81;;;4.88;100.00
83195;BME280;73090;49.282;11.402;2024-02-16T03:44:30;96402.81;;;4.89;100.00
83195;BME280;73090;49.282;11.402;2024-02-16T03:48:31;96400.50;;;4.86;100.00
83195;BME280;73090;49.282;11.402;2024-02-16T03:52:33;96393.81;;;4.83;100.00
83195;BME280;73090;49.282;11.402;2024-02-16T03:56:35;96398.38;;;4.81;100.00
83195;BME280;73090;49.282;11.402;2024-02-16T04:00:36;96399.88;;;4.84;100.00
83195;BME280;73090;49.282;11.402;2024-02-16T04:04:38;96393.66;;;4.85;100.00
83195;BME280;73090;49.282;11.402;2024-02-16T04:08:40;96396.13;;;4.86;100.00
83195;BME280;73090;49.282;11.402;2024-02-16T04:12:42;96395.47;;;4.84;100.00
83195;BME280;73090;49.282;11.402;2024-02-16T04:16:44;96398.22;;;4.83;100.00
83195;BME280;73090;49.282;11.402;2024-02-16T04:20:46;96390.25;;;4.84;100.00
83195;BME280;73090;49.282;11.402;2024-02-16T04:24:48;96388.09;;;4.80;100.00
83195;BME280;73090;49.282;11.402;2024-02-16T04:28:50;96388.91;;;4.80;100.00
83195;BME280;73090;49.282;11.402;2024-02-16T04:32:52;96389.59;;;4.82;100.00
83195;BME280;73090;49.282;11.402;2024-02-16T04:36:54;96390.75;;;4.88;100.00
83195;BME280;73090;49.282;11.402;2024-02-16T04:40:56;96383.13;;;4.95;100.00
83195;BME280;73090;49.282;11.402;2024-02-16T04:44:58;96399.44;;;4.97;100.00
83195;BME280;73090;49.282;11.402;2024-02-16T04:49:01;96390.50;;;4.99;100.00
83195;BME280;73090;49.282;11.402;2024-02-16T04:53:03;96393.09;;;4.99;100.00
83195;BME280;73090;49.282;11.402;2024-02-16T04:57:05;96387.88;;;4.99;100.00
83195;BME280;73090;49.282;11.402;2024-02-16T05:01:06;96380.22;;;4.98;100.00
83195;BME280;73090;49.282;11.402;2024-02-16T05:05:08;96378.75;;;4.95;100.00
83195;BME280;73090;49.282;11.402;2024-02-16T05:09:10;96381.69;;;4.92;100.00
83195;BME280;73090;49.282;11.402;2024-02-16T05:13:12;96386.94;;;5.00;99.84
83195;BME280;73090;49.282;11.402;2024-02-16T05:17:15;96388.72;;;5.00;99.84
83195;BME280;73090;49.282;11.402;2024-02-16T05:21:17;96375.31;;;4.95;100.00
83195;BME280;73090;49.282;11.402;2024-02-16T05:25:19;96377.28;;;4.93;100.00
83195;BME280;73090;49.282;11.402;2024-02-16T05:29:21;96374.00;;;4.90;100.00
83195;BME280;73090;49.282;11.402;2024-02-16T05:33:22;96376.94;;;4.87;100.00
83195;BME280;73090;49.282;11.402;2024-02-16T05:37:25;96377.72;;;4.88;100.00
83195;BME280;73090;49.282;11.402;2024-02-16T05:41:27;96386.22;;;4.90;100.00
83195;BME280;73090;49.282;11.402;2024-02-16T05:45:28;96378.91;;;4.94;100.00
83195;BME280;73090;49.282;11.402;2024-02-16T05:49:30;96368.38;;;5.03;100.00
83195;BME280;73090;49.282;11.402;2024-02-16T05:53:32;96359.94;;;5.09;100.00
83195;BME280;73090;49.282;11.402;2024-02-16T05:57:35;96370.72;;;5.15;100.00
83195;BME280;73090;49.282;11.402;2024-02-16T06:01:37;96382.97;;;5.22;100.00
83195;BME280;73090;49.282;11.402;2024-02-16T06:05:40;96383.63;;;5.24;100.00
83195;BME280;73090;49.282;11.402;2024-02-16T06:09:42;96385.72;;;5.21;99.76
83195;BME280;73090;49.282;11.402;2024-02-16T06:13:43;96385.56;;;5.22;99.13
83195;BME280;73090;49.282;11.402;2024-02-16T06:17:45;96394.97;;;5.15;99.08
83195;BME280;73090;49.282;11.402;2024-02-16T06:21:47;96402.28;;;5.12;99.04
83195;BME280;73090;49.282;11.402;2024-02-16T06:25:48;96408.66;;;5.09;99.18
83195;BME280;73090;49.282;11.402;2024-02-16T06:29:50;96415.94;;;5.05;99.30
83195;BME280;73090;49.282;11.402;2024-02-16T06:33:51;96421.44;;;5.02;99.23
83195;BME280;73090;49.282;11.402;2024-02-16T06:37:53;96418.03;;;5.02;99.60
83195;BME280;73090;49.282;11.402;2024-02-16T06:41:55;96430.25;;;5.01;99.72
83195;BME280;73090;49.282;11.402;2024-02-16T06:45:56;96437.06;;;5.02;99.62
83195;BME280;73090;49.282;11.402;2024-02-16T06:49:58;96432.56;;;5.04;99.86
83195;BME280;73090;49.282;11.402;2024-02-16T06:54:00;96445.63;;;5.13;100.00
83195;BME280;73090;49.282;11.402;2024-02-16T06:58:02;96450.38;;;5.17;100.00
83195;BME280;73090;49.282;11.402;2024-02-16T07:02:04;96454.13;;;5.23;99.79
83195;BME280;73090;49.282;11.402;2024-02-16T07:06:07;96457.44;;;5.25;99.97
83195;BME280;73090;49.282;11.402;2024-02-16T07:10:11;96455.97;;;5.31;99.85
83195;BME280;73090;49.282;11.402;2024-02-16T07:14:15;96455.09;;;5.48;99.35
83195;BME280;73090;49.282;11.402;2024-02-16T07:18:16;96459.22;;;5.59;98.98
83195;BME280;73090;49.282;11.402;2024-02-16T07:22:18;96462.38;;;5.79;98.05
83195;BME280;73090;49.282;11.402;2024-02-16T07:26:19;96469.94;;;5.90;96.72
83195;BME280;73090;49.282;11.402;2024-02-16T07:30:21;96459.56;;;6.07;95.53
83195;BME280;73090;49.282;11.402;2024-02-16T07:34:34;96473.44;;;6.15;94.45
83195;BME280;73090;49.282;11.402;2024-02-16T07:38:36;96477.53;;;6.18;93.94
83195;BME280;73090;49.282;11.402;2024-02-16T07:42:38;96465.47;;;6.17;94.02
83195;BME280;73090;49.282;11.402;2024-02-16T07:46:41;96464.00;;;6.14;94.33
83195;BME280;73090;49.282;11.402;2024-02-16T07:50:43;96472.47;;;6.16;94.00
83195;BME280;73090;49.282;11.402;2024-02-16T07:54:45;96472.81;;;6.22;93.61
83195;BME280;73090;49.282;11.402;2024-02-16T07:58:47;96467.44;;;6.31;93.38
83195;BME280;73090;49.282;11.402;2024-02-16T08:02:48;96462.25;;;6.40;92.96
83195;BME280;73090;49.282;11.402;2024-02-16T08:06:50;96461.41;;;6.47;92.45
83195;BME280;73090;49.282;11.402;2024-02-16T08:10:52;96454.44;;;6.56;92.13
83195;BME280;73090;49.282;11.402;2024-02-16T08:14:54;96459.81;;;6.63;91.28
83195;BME280;73090;49.282;11.402;2024-02-16T08:18:59;96464.22;;;6.79;90.47
83195;BME280;73090;49.282;11.402;2024-02-16T08:23:01;96465.84;;;6.88;90.36
83195;BME280;73090;49.282;11.402;2024-02-16T08:27:03;96470.25;;;7.12;89.10
83195;BME280;73090;49.282;11.402;2024-02-16T08:31:05;96464.63;;;7.32;87.40
83195;BME280;73090;49.282;11.402;2024-02-16T08:35:08;96467.41;;;7.47;86.51
83195;BME280;73090;49.282;11.402;2024-02-16T08:39:10;96464.56;;;7.65;85.98
83195;BME280;73090;49.282;11.402;2024-02-16T08:43:13;96460.38;;;8.18;85.76
83195;BME280;73090;49.282;11.402;2024-02-16T08:47:15;96468.00;;;8.82;83.64
83195;BME280;73090;49.282;11.402;2024-02-16T08:51:17;96462.13;;;9.33;79.67
83195;BME280;73090;49.282;11.402;2024-02-16T08:55:19;96461.97;;;9.65;78.68
83195;BME280;73090;49.282;11.402;2024-02-16T08:59:20;96466.66;;;9.84;77.56
83195;BME280;73090;49.282;11.402;2024-02-16T09:03:22;96477.41;;;10.04;76.63
83195;BME280;73090;49.282;11.402;2024-02-16T09:07:26;96479.81;;;10.36;74.29
83195;BME280;73090;49.282;11.402;2024-02-16T09:11:27;96481.53;;;10.65;73.31
83195;BME280;73090;49.282;11.402;2024-02-16T09:15:29;96482.56;;;10.92;74.66
83195;BME280;73090;49.282;11.402;2024-02-16T09:19:31;96487.72;;;11.29;70.95
83195;BME280;73090;49.282;11.402;2024-02-16T09:23:33;96484.53;;;11.68;70.83
83195;BME280;73090;49.282;11.402;2024-02-16T09:27:36;96490.19;;;11.93;69.22
83195;BME280;73090;49.282;11.402;2024-02-16T09:31:42;96493.56;;;12.29;67.31
83195;BME280;73090;49.282;11.402;2024-02-16T09:35:43;96490.38;;;12.47;67.29
83195;BME280;73090;49.282;11.402;2024-02-16T09:39:45;96491.63;;;12.64;66.30
83195;BME280;73090;49.282;11.402;2024-02-16T09:43:47;96494.44;;;12.49;66.44
83195;BME280;73090;49.282;11.402;2024-02-16T09:47:49;96498.91;;;12.49;66.83
83195;BME280;73090;49.282;11.402;2024-02-16T09:52:04;96493.69;;;12.82;65.41
83195;BME280;73090;49.282;11.402;2024-02-16T09:56:06;96500.97;;;12.60;66.39
83195;BME280;73090;49.282;11.402;2024-02-16T10:00:10;96503.88;;;12.17;66.66
83195;BME280;73090;49.282;11.402;2024-02-16T10:04:12;96503.16;;;11.95;68.89
83195;BME280;73090;49.282;11.402;2024-02-16T10:08:14;96497.34;;;12.13;67.46
83195;BME280;73090;49.282;11.402;2024-02-16T10:12:19;96509.97;;;12.31;66.82
83195;BME280;73090;49.282;11.402;2024-02-16T10:16:21;96501.03;;;12.19;67.54
83195;BME280;73090;49.282;11.402;2024-02-16T10:20:23;96522.63;;;12.01;67.52
83195;BME280;73090;49.282;11.402;2024-02-16T10:24:25;96510.13;;;11.81;67.92
83195;BME280;73090;49.282;11.402;2024-02-16T10:28:28;96516.19;;;11.75;69.33
83195;BME280;73090;49.282;11.402;2024-02-16T10:32:32;96514.13;;;11.70;69.20
83195;BME280;73090;49.282;11.402;2024-02-16T10:36:39;96518.44;;;11.50;69.01
83195;BME280;73090;49.282;11.402;2024-02-16T10:40:41;96522.16;;;11.34;69.27
83195;BME280;73090;49.282;11.402;2024-02-16T10:44:44;96521.13;;;11.28;70.49
83195;BME280;73090;49.282;11.402;2024-02-16T10:48:46;96511.31;;;11.15;70.29
83195;BME280;73090;49.282;11.402;2024-02-16T10:52:48;96509.50;;;10.94;71.11
83195;BME280;73090;49.282;11.402;2024-02-16T10:56:53;96500.94;;;10.85;71.89
83195;BME280;73090;49.282;11.402;2024-02-16T11:00:56;96502.56;;;10.65;73.11
83195;BME280;73090;49.282;11.402;2024-02-16T11:04:58;96497.47;;;10.63;73.69
83195;BME280;73090;49.282;11.402;2024-02-16T11:09:03;96499.13;;;10.64;73.89
83195;BME280;73090;49.282;11.402;2024-02-16T11:13:11;96493.88;;;10.64;74.40
83195;BME280;73090;49.282;11.402;2024-02-16T11:17:20;96493.50;;;10.67;73.37
83195;BME280;73090;49.282;11.402;2024-02-16T11:21:22;96497.66;;;10.62;73.67
83195;BME280;73090;49.282;11.402;2024-02-16T11:25:30;96499.22;;;10.56;74.33
83195;BME280;73090;49.282;11.402;2024-02-16T11:29:36;96497.06;;;10.60;74.30
83195;BME280;73090;49.282;11.402;2024-02-16T11:33:43;96501.09;;;10.62;74.53
83195;BME280;73090;49.282;11.402;2024-02-16T11:37:47;96502.88;;;10.55;74.24
83195;BME280;73090;49.282;11.402;2024-02-16T11:41:59;96502.50;;;10.58;74.88
83195;BME280;73090;49.282;11.402;2024-02-16T11:46:13;96511.00;;;10.60;74.66
83195;BME280;73090;49.282;11.402;2024-02-16T11:50:17;96508.31;;;10.53;75.62
83195;BME280;73090;49.282;11.402;2024-02-16T11:54:19;96497.97;;;10.52;74.85
83195;BME280;73090;49.282;11.402;2024-02-16T11:58:21;96501.97;;;10.48;75.27
83195;BME280;73090;49.282;11.402;2024-02-16T12:02:24;96512.28;;;10.49;74.92
83195;BME280;73090;49.282;11.402;2024-02-16T12:06:26;96505.09;;;10.37;75.33
83195;BME280;73090;49.282;11.402;2024-02-16T12:10:29;96505.44;;;10.33;75.60
83195;BME280;73090;49.282;11.402;2024-02-16T12:14:31;96503.53;;;10.27;76.71
83195;BME280;73090;49.282;11.402;2024-02-16T12:18:32;96502.03;;;10.33;76.09
83195;BME280;73090;49.282;11.402;2024-02-16T12:22:34;96502.16;;;10.31;75.85
83195;BME280;73090;49.282;11.402;2024-02-16T12:26:37;96500.28;;;10.25;76.29
83195;BME280;73090;49.282;11.402;2024-02-16T12:30:38;96496.00;;;10.24;76.53
83195;BME280;73090;49.282;11.402;2024-02-16T12:34:41;96503.72;;;10.26;76.52
83195;BME280;73090;49.282;11.402;2024-02-16T12:38:43;96503.84;;;10.32;76.48
83195;BME280;73090;49.282;11.402;2024-02-16T12:42:44;96496.22;;;10.38;75.98
83195;BME280;73090;49.282;11.402;2024-02-16T12:46:48;96505.81;;;10.45;76.44
83195;BME280;73090;49.282;11.402;2024-02-16T12:50:50;96505.06;;;10.51;76.47
83195;BME280;73090;49.282;11.402;2024-02-16T12:54:56;96504.94;;;10.60;76.31
83195;BME280;73090;49.282;11.402;2024-02-16T12:59:00;96492.47;;;10.68;76.54
83195;BME280;73090;49.282;11.402;2024-02-16T13:03:03;96496.28;;;10.87;76.81
83195;BME280;73090;49.282;11.402;2024-02-16T13:07:05;96490.41;;;10.85;76.01
83195;BME280;73090;49.282;11.402;2024-02-16T13:11:07;96486.56;;;10.88;74.84
83195;BME280;73090;49.282;11.402;2024-02-16T13:15:10;96493.47;;;10.89;75.32
83195;BME280;73090;49.282;11.402;2024-02-16T13:19:28;96487.47;;;10.95;74.84
83195;BME280;73090;49.282;11.402;2024-02-16T13:23:29;96489.53;;;11.00;74.66
83195;BME280;73090;49.282;11.402;2024-02-16T13:27:32;96489.16;;;11.03;74.55
83195;BME280;73090;49.282;11.402;2024-02-16T13:31:36;96486.13;;;11.06;74.98
83195;BME280;73090;49.282;11.402;2024-02-16T13:35:37;96489.75;;;11.05;74.72
83195;BME280;73090;49.282;11.402;2024-02-16T13:39:39;96500.84;;;11.00;74.30
83195;BME280;73090;49.282;11.402;2024-02-16T13:43:41;96501.38;;;10.89;75.64
83195;BME280;73090;49.282;11.402;2024-02-16T13:47:42;96506.13;;;10.79;76.69
83195;BME280;73090;49.282;11.402;2024-02-16T13:51:45;96519.72;;;10.82;76.24
83195;BME280;73090;49.282;11.402;2024-02-16T13:55:47;96512.25;;;10.86;76.35
83195;BME280;73090;49.282;11.402;2024-02-16T13:59:48;96514.69;;;10.87;76.16
83195;BME280;73090;49.282;11.402;2024-02-16T14:03:50;96520.53;;;10.83;76.45
83195;BME280;73090;49.282;11.402;2024-02-16T14:07:52;96522.09;;;10.77;77.29
83195;BME280;73090;49.282;11.402;2024-02-16T14:12:01;96520.28;;;10.78;77.16
83195;BME280;73090;49.282;11.402;2024-02-16T14:16:03;96525.91;;;10.75;77.64
83195;BME280;73090;49.282;11.402;2024-02-16T14:20:05;96526.91;;;10.74;77.36
83195;BME280;73090;49.282;11.402;2024-02-16T14:24:07;96529.53;;;10.74;77.18
83195;BME280;73090;49.282;11.402;2024-02-16T14:28:11;96533.53;;;10.69;77.71
83195;BME280;73090;49.282;11.402;2024-02-16T14:32:13;96538.38;;;10.66;78.05
83195;BME280;73090;49.282;11.402;2024-02-16T14:36:15;96537.66;;;10.57;78.41
83195;BME280;73090;49.282;11.402;2024-02-16T14:40:17;96537.41;;;10.52;78.38
83195;BME280;73090;49.282;11.402;2024-02-16T14:44:18;96534.53;;;10.47;78.94
83195;BME280;73090;49.282;11.402;2024-02-16T14:48:20;96545.41;;;10.44;79.23
83195;BME280;73090;49.282;11.402;2024-02-16T14:52:22;96543.50;;;10.38;79.75
83195;BME280;73090;49.282;11.402;2024-02-16T14:56:23;96542.88;;;10.36;79.96
83195;BME280;73090;49.282;11.402;2024-02-16T15:00:25;96548.50;;;10.32;79.68
83195;BME280;73090;49.282;11.402;2024-02-16T15:04:27;96543.94;;;10.26;80.62
83195;BME280;73090;49.282;11.402;2024-02-16T15:08:28;96544.69;;;10.20;81.56
83195;BME280;73090;49.282;11.402;2024-02-16T15:12:30;96561.00;;;10.15;82.68
83195;BME280;73090;49.282;11.402;2024-02-16T15:16:32;96559.91;;;10.10;83.17
83195;BME280;73090;49.282;11.402;2024-02-16T15:20:34;96559.63;;;10.05;83.98
83195;BME280;73090;49.282;11.402;2024-02-16T15:24:36;96567.25;;;9.99;84.52
83195;BME280;73090;49.282;11.402;2024-02-16T15:28:37;96565.34;;;9.93;84.78
83195;BME280;73090;49.282;11.402;2024-02-16T15:32:39;96565.06;;;9.88;85.22
83195;BME280;73090;49.282;11.402;2024-02-16T15:36:41;96571.84;;;9.83;86.04
83195;BME280;73090;49.282;11.402;2024-02-16T15:40:43;96577.00;;;9.76;86.26
83195;BME280;73090;49.282;11.402;2024-02-16T15:44:45;96580.34;;;9.70;86.50
83195;BME280;73090;49.282;11.402;2024-02-16T15:48:47;96583.69;;;9.63;87.00
83195;BME280;73090;49.282;11.402;2024-02-16T15:52:50;96578.69;;;9.54;87.64
83195;BME280;73090;49.282;11.402;2024-02-16T15:56:52;96574.16;;;9.48;87.86
83195;BME280;73090;49.282;11.402;2024-02-16T16:00:58;96590.41;;;9.43;88.47
83195;BME280;73090;49.282;11.402;2024-02-16T16:05:00;96584.09;;;9.37;88.38
83195;BME280;73090;49.282;11.402;2024-02-16T16:09:02;96589.88;;;9.33;88.48
83195;BME280;73090;49.282;11.402;2024-02-16T16:13:08;96594.84;;;9.28;88.38
83195;BME280;73090;49.282;11.402;2024-02-16T16:17:13;96598.97;;;9.22;89.10
83195;BME280;73090;49.282;11.402;2024-02-16T16:21:15;96594.94;;;9.11;89.77
83195;BME280;73090;49.282;11.402;2024-02-16T16:25:16;96608.09;;;9.03;90.73
83195;BME280;73090;49.282;11.402;2024-02-16T16:29:18;96605.38;;;8.96;90.75
83195;BME280;73090;49.282;11.402;2024-02-16T16:33:20;96608.22;;;8.86;91.44
83195;BME280;73090;49.282;11.402;2024-02-16T16:37:22;96615.63;;;8.83;91.47
83195;BME280;73090;49.282;11.402;2024-02-16T16:41:23;96623.50;;;8.75;91.24
83195;BME280;73090;49.282;11.402;2024-02-16T16:45:26;96622.88;;;8.73;91.32
83195;BME280;73090;49.282;11.402;2024-02-16T16:49:28;96631.75;;;8.63;91.92
83195;BME280;73090;49.282;11.402;2024-02-16T16:53:31;96639.66;;;8.55;92.12
83195;BME280;73090;49.282;11.402;2024-02-16T16:57:33;96648.84;;;8.51;92.55
83195;BME280;73090;49.282;11.402;2024-02-16T17:01:36;96647.72;;;8.45;92.73
83195;BME280;73090;49.282;11.402;2024-02-16T17:05:39;96650.81;;;8.41;92.86
83195;BME280;73090;49.282;11.402;2024-02-16T17:09:43;96650.66;;;8.42;93.11
83195;BME280;73090;49.282;11.402;2024-02-16T17:13:45;96653.31;;;8.34;93.36
83195;BME280;73090;49.282;11.402;2024-02-16T17:17:50;96660.16;;;8.35;93.44
83195;BME280;73090;49.282;11.402;2024-02-16T17:21:56;96666.59;;;8.24;93.88
83195;BME280;73090;49.282;11.402;2024-02-16T17:25:58;96665.28;;;8.20;93.76
83195;BME280;73090;49.282;11.402;2024-02-16T17:30:02;96676.91;;;8.17;93.88
83195;BME280;73090;49.282;11.402;2024-02-16T17:34:04;96673.81;;;8.14;94.19
83195;BME280;73090;49.282;11.402;2024-02-16T17:38:09;96673.31;;;8.10;94.12
83195;BME280;73090;49.282;11.402;2024-02-16T17:42:11;96687.22;;;8.11;94.55
83195;BME280;73090;49.282;11.402;2024-02-16T17:46:13;96692.28;;;8.12;94.39
83195;BME280;73090;49.282;11.402;2024-02-16T17:50:15;96693.47;;;8.10;94.63
83195;BME280;73090;49.282;11.402;2024-02-16T17:54:17;96705.88;;;8.08;94.74
83195;BME280;73090;49.282;11.402;2024-02-16T17:58:20;96705.41;;;8.04;94.68
83195;BME280;73090;49.282;11.402;2024-02-16T18:02:21;96713.09;;;8.06;94.70
83195;BME280;73090;49.282;11.402;2024-02-16T18:06:39;96712.94;;;7.99;94.86
83195;BME280;73090;49.282;11.402;2024-02-16T18:10:43;96726.03;;;7.99;94.80
83195;BME280;73090;49.282;11.402;2024-02-16T18:14:45;96728.00;;;7.97;95.32
83195;BME280;73090;49.282;11.402;2024-02-16T18:18:46;96731.28;;;7.99;95.60
83195;BME280;73090;49.282;11.402;2024-02-16T18:22:48;96737.63;;;7.96;95.68
83195;BME280;73090;49.282;11.402;2024-02-16T18:26:50;96733.56;;;7.94;95.85
83195;BME280;73090;49.282;11.402;2024-02-16T18:30:53;96740.59;;;7.93;96.02
83195;BME280;73090;49.282;11.402;2024-02-16T18:34:55;96742.41;;;7.93;96.04
83195;BME280;73090;49.282;11.402;2024-02-16T18:38:56;96748.13;;;7.88;96.55
83195;BME280;73090;49.282;11.402;2024-02-16T18:42:58;96748.44;;;7.85;96.51
83195;BME280;73090;49.282;11.402;2024-02-16T18:47:00;96740.44;;;7.87;96.63
83195;BME280;73090;49.282;11.402;2024-02-16T18:51:03;96747.97;;;7.81;96.82
83195;BME280;73090;49.282;11.402;2024-02-16T18:55:06;96753.50;;;7.78;97.18
83195;BME280;73090;49.282;11.402;2024-02-16T18:59:08;96768.56;;;7.76;97.20
83195;BME280;73090;49.282;11.402;2024-02-16T19:03:10;96774.63;;;7.77;97.73
83195;BME280;73090;49.282;11.402;2024-02-16T19:07:12;96776.91;;;7.80;97.79
83195;BME280;73090;49.282;11.402;2024-02-16T19:11:15;96774.28;;;7.88;97.73
83195;BME280;73090;49.282;11.402;2024-02-16T19:15:17;96776.25;;;7.94;97.55
83195;BME280;73090;49.282;11.402;2024-02-16T19:19:19;96777.06;;;7.95;97.54
83195;BME280;73090;49.282;11.402;2024-02-16T19:23:21;96779.69;;;7.95;97.23
83195;BME280;73090;49.282;11.402;2024-02-16T19:27:23;96784.91;;;7.95;97.43
83195;BME280;73090;49.282;11.402;2024-02-16T19:31:27;96786.41;;;7.97;97.39
83195;BME280;73090;49.282;11.402;2024-02-16T19:35:30;96783.31;;;7.94;97.56
83195;BME280;73090;49.282;11.402;2024-02-16T19:39:31;96789.19;;;7.88;97.43
83195;BME280;73090;49.282;11.402;2024-02-16T19:43:33;96789.66;;;7.83;97.59
83195;BME280;73090;49.282;11.402;2024-02-16T19:47:35;96796.88;;;7.81;97.74
83195;BME280;73090;49.282;11.402;2024-02-16T19:51:37;96806.03;;;7.85;97.84
83195;BME280;73090;49.282;11.402;2024-02-16T19:55:39;96799.31;;;7.82;97.96
83195;BME280;73090;49.282;11.402;2024-02-16T19:59:41;96814.34;;;7.80;98.09
83195;BME280;73090;49.282;11.402;2024-02-16T20:03:45;96803.56;;;7.84;98.12
83195;BME280;73090;49.282;11.402;2024-02-16T20:07:47;96812.91;;;7.86;98.24
83195;BME280;73090;49.282;11.402;2024-02-16T20:11:49;96815.38;;;7.88;98.24
83195;BME280;73090;49.282;11.402;2024-02-16T20:15:51;96816.34;;;7.87;98.42
83195;BME280;73090;49.282;11.402;2024-02-16T20:19:53;96815.38;;;7.88;98.15
83195;BME280;73090;49.282;11.402;2024-02-16T20:23:55;96822.22;;;7.89;97.92
83195;BME280;73090;49.282;11.402;2024-02-16T20:27:56;96828.28;;;7.89;97.95
83195;BME280;73090;49.282;11.402;2024-02-16T20:31:59;96823.06;;;7.97;98.27
83195;BME280;73090;49.282;11.402;2024-02-16T20:36:00;96823.38;;;8.11;98.96
83195;BME280;73090;49.282;11.402;2024-02-16T20:40:02;96832.88;;;8.20;98.62
83195;BME280;73090;49.282;11.402;2024-02-16T20:44:05;96832.56;;;8.31;98.57
83195;BME280;73090;49.282;11.402;2024-02-16T20:48:07;96843.69;;;8.42;98.18
83195;BME280;73090;49.282;11.402;2024-02-16T20:52:09;96846.50;;;8.48;97.97
83195;BME280;73090;49.282;11.402;2024-02-16T20:56:10;96836.00;;;8.57;97.10
83195;BME280;73090;49.282;11.402;2024-02-16T21:00:12;96845.84;;;8.63;97.35
83195;BME280;73090;49.282;11.402;2024-02-16T21:04:14;96850.25;;;8.70;96.73
83195;BME280;73090;49.282;11.402;2024-02-16T21:08:16;96851.38;;;8.76;96.55
83195;BME280;73090;49.282;11.402;2024-02-16T21:12:18;96854.81;;;8.85;96.22
83195;BME280;73090;49.282;11.402;2024-02-16T21:16:20;96855.13;;;8.90;95.59